Ulladulla, Australia
Current Conditions -  °F | °C
As of 12:00 AM on Friday 19 Dec 2014 (Local Time) from YSNW Reporting Station
Clear Clear  
Wind Chill: 66°   Ceiling: Unl
Heat Index: 66°   Visibility: 6mi
Dew Point: 66°   Wind: 9mph
Humidity: 100%   Direction: 280°W
Pressure: 29.68"   Gusts: NA
Location:  35.36°S, 150.47°E
Report Text: YSNW 181300Z AUTO 28008KT 9000 // NCD 19/19 Q1005
Loading
Personal Weather Stations






























Interactive Weather Map New forecast layout! Learn more

10-Day Weather Forecast

Advertisements
Track Severe Weather on mobile